createdAt,value
2022-07-28T00:00:53.010Z,100.00
2022-07-28T00:03:20.262Z,100.00
2022-07-28T00:05:47.757Z,100.00
2022-07-28T00:08:17.276Z,100.00
2022-07-28T00:10:45.871Z,100.00
2022-07-28T00:13:13.151Z,100.00
2022-07-28T00:15:40.801Z,100.00
2022-07-28T00:18:07.833Z,100.00
2022-07-28T00:20:35.120Z,100.00
2022-07-28T00:23:02.601Z,100.00
2022-07-28T00:25:30.085Z,100.00
2022-07-28T00:27:58.906Z,100.00
2022-07-28T00:30:26.126Z,100.00
2022-07-28T00:32:53.896Z,100.00
2022-07-28T00:35:30.253Z,100.00
2022-07-28T00:37:58.661Z,100.00
2022-07-28T00:40:27.068Z,100.00
2022-07-28T00:42:53.960Z,100.00
2022-07-28T00:45:23.104Z,100.00
2022-07-28T00:47:50.270Z,100.00
2022-07-28T00:50:17.710Z,100.00
2022-07-28T00:52:45.797Z,100.00
2022-07-28T00:55:13.147Z,100.00
2022-07-28T00:57:40.933Z,100.00
2022-07-28T01:00:09.796Z,100.00
2022-07-28T01:02:38.685Z,100.00
2022-07-28T01:05:06.466Z,100.00
2022-07-28T01:07:43.389Z,100.00
2022-07-28T01:10:17.204Z,100.00
2022-07-28T01:12:51.412Z,100.00
2022-07-28T01:15:25.959Z,100.00
2022-07-28T01:18:05.336Z,100.00
2022-07-28T01:20:38.590Z,100.00
2022-07-28T01:23:25.327Z,100.00
2022-07-28T01:26:12.980Z,100.00
2022-07-28T01:29:00.017Z,100.00
2022-07-28T01:31:36.741Z,100.00
2022-07-28T01:34:09.829Z,100.00
2022-07-28T01:36:43.376Z,100.00
2022-07-28T01:39:12.804Z,100.00
2022-07-28T01:41:44.495Z,100.00
2022-07-28T01:44:19.125Z,100.00
2022-07-28T01:46:50.260Z,100.00
2022-07-28T01:49:20.233Z,100.00
2022-07-28T01:51:50.208Z,100.00
2022-07-28T01:54:19.396Z,100.00
2022-07-28T01:56:48.493Z,100.00
2022-07-28T01:59:17.305Z,100.00
2022-07-28T02:01:48.569Z,100.00
2022-07-28T02:04:20.350Z,100.00
2022-07-28T02:06:50.015Z,100.00
2022-07-28T02:09:19.345Z,100.00
2022-07-28T02:11:47.708Z,100.00
2022-07-28T02:14:19.353Z,100.00
2022-07-28T02:16:53.286Z,100.00
2022-07-28T02:19:22.749Z,100.00
2022-07-28T02:21:51.533Z,100.00
2022-07-28T02:24:22.191Z,100.00
2022-07-28T02:26:53.947Z,100.00
2022-07-28T02:29:49.337Z,100.00
2022-07-28T02:32:28.200Z,100.00
2022-07-28T02:35:01.085Z,100.00
2022-07-28T02:37:34.900Z,100.00
2022-07-28T02:40:04.413Z,100.00
2022-07-28T02:42:36.351Z,100.00
2022-07-28T02:45:08.982Z,100.00
2022-07-28T02:47:45.799Z,100.00
2022-07-28T02:50:16.724Z,100.00
2022-07-28T02:52:45.933Z,100.00
2022-07-28T02:55:16.336Z,100.00
2022-07-28T02:57:46.438Z,100.00
2022-07-28T03:00:14.748Z,100.00
2022-07-28T03:02:44.068Z,100.00
2022-07-28T03:05:11.679Z,100.00
2022-07-28T03:07:41.253Z,100.00
2022-07-28T03:10:33.967Z,100.00
2022-07-28T03:13:03.281Z,100.00
2022-07-28T03:15:30.752Z,100.00
2022-07-28T03:17:59.787Z,100.00
2022-07-28T03:20:27.049Z,100.00
2022-07-28T03:22:54.585Z,100.00
2022-07-28T03:25:27.231Z,100.00
2022-07-28T03:27:56.352Z,100.00
2022-07-28T03:30:32.265Z,100.00
2022-07-28T03:33:03.233Z,100.00
2022-07-28T03:35:33.304Z,100.00
2022-07-28T03:38:05.943Z,100.00
2022-07-28T03:40:34.098Z,100.00
2022-07-28T03:43:03.535Z,100.00
2022-07-28T03:45:33.202Z,100.00
2022-07-28T03:48:04.074Z,100.00
2022-07-28T03:50:33.494Z,100.00
2022-07-28T03:53:02.359Z,100.00
2022-07-28T03:55:29.869Z,100.00
2022-07-28T03:57:57.540Z,100.00
2022-07-28T04:00:25.476Z,100.00
2022-07-28T04:02:53.023Z,100.00
2022-07-28T04:05:21.821Z,100.00
2022-07-28T04:07:48.988Z,100.00
2022-07-28T04:10:17.796Z,100.00
2022-07-28T04:12:46.939Z,100.00
2022-07-28T04:15:14.405Z,100.00
2022-07-28T04:17:42.586Z,100.00
2022-07-28T04:20:11.409Z,100.00
2022-07-28T04:22:40.513Z,100.00
2022-07-28T04:25:09.346Z,100.00
2022-07-28T04:27:36.830Z,100.00
2022-07-28T04:30:05.428Z,100.00
2022-07-28T04:32:32.676Z,100.00
2022-07-28T04:34:59.688Z,100.00
2022-07-28T04:37:26.974Z,100.00
2022-07-28T04:40:01.374Z,100.00
2022-07-28T04:42:28.570Z,100.00
2022-07-28T04:44:56.212Z,100.00
2022-07-28T04:47:23.716Z,100.00
2022-07-28T04:49:51.111Z,100.00
2022-07-28T04:52:18.394Z,100.00
2022-07-28T04:54:45.389Z,100.00
2022-07-28T04:57:14.464Z,100.00
2022-07-28T04:59:41.979Z,100.00
2022-07-28T05:02:10.749Z,100.00
2022-07-28T05:04:38.994Z,100.00
2022-07-28T05:07:12.600Z,100.00
2022-07-28T05:09:40.684Z,100.00
2022-07-28T05:12:08.825Z,100.00
2022-07-28T05:14:38.292Z,100.00
2022-07-28T05:17:05.834Z,100.00
2022-07-28T05:19:33.639Z,100.00
2022-07-28T05:22:00.810Z,100.00
2022-07-28T05:24:28.323Z,100.00
2022-07-28T05:26:55.854Z,100.00
2022-07-28T05:29:24.049Z,100.00
2022-07-28T05:31:52.634Z,100.00
2022-07-28T05:34:19.675Z,100.00
2022-07-28T05:36:46.707Z,100.00
2022-07-28T05:39:13.798Z,100.00
2022-07-28T05:41:40.826Z,100.00
2022-07-28T05:44:07.799Z,100.00
2022-07-28T05:46:34.803Z,100.00
2022-07-28T05:49:03.453Z,100.00
2022-07-28T05:51:30.483Z,100.00
2022-07-28T05:53:57.446Z,100.00
2022-07-28T05:56:24.577Z,100.00
2022-07-28T05:58:51.707Z,100.00
2022-07-28T06:01:19.255Z,100.00
2022-07-28T06:03:58.079Z,100.00
2022-07-28T06:06:32.706Z,100.00
2022-07-28T06:09:00.070Z,100.00
2022-07-28T06:11:27.009Z,100.00
2022-07-28T06:13:54.478Z,100.00
2022-07-28T06:16:22.547Z,100.00
2022-07-28T06:18:49.776Z,100.00
2022-07-28T06:21:17.329Z,100.00
2022-07-28T06:23:46.417Z,100.00
2022-07-28T06:26:13.436Z,100.00
2022-07-28T06:28:40.834Z,100.00
2022-07-28T06:31:07.965Z,100.00
2022-07-28T06:33:35.705Z,100.00
2022-07-28T06:36:02.720Z,100.00
2022-07-28T06:38:29.744Z,100.00
2022-07-28T06:40:58.121Z,100.00
2022-07-28T06:43:25.060Z,100.00
2022-07-28T06:48:56.060Z,100.00
2022-07-28T06:51:24.050Z,100.00
2022-07-28T06:53:51.130Z,100.00
2022-07-28T06:56:19.702Z,100.00
2022-07-28T06:58:48.496Z,100.00
2022-07-28T07:01:15.591Z,100.00
2022-07-28T07:03:43.341Z,100.00
2022-07-28T07:06:10.493Z,100.00
2022-07-28T07:08:37.367Z,100.00
2022-07-28T07:11:04.470Z,100.00
2022-07-28T07:13:32.825Z,100.00
2022-07-28T07:15:59.854Z,100.00
2022-07-28T07:18:26.988Z,100.00
2022-07-28T07:20:53.989Z,100.00
2022-07-28T07:23:21.112Z,100.00
2022-07-28T07:25:48.331Z,100.00
2022-07-28T07:28:15.555Z,100.00
2022-07-28T07:30:45.204Z,100.00
2022-07-28T07:33:12.354Z,100.00
2022-07-28T07:35:39.345Z,100.00
2022-07-28T07:38:06.478Z,100.00
2022-07-28T07:40:33.726Z,100.00
2022-07-28T07:43:00.963Z,100.00
2022-07-28T07:45:28.120Z,100.00
2022-07-28T07:47:56.588Z,100.00
2022-07-28T07:50:23.672Z,100.00
2022-07-28T07:52:50.586Z,100.00
2022-07-28T07:55:17.913Z,100.00
2022-07-28T07:57:45.183Z,100.00
2022-07-28T08:00:28.547Z,100.00
2022-07-28T08:02:59.204Z,100.00
2022-07-28T08:05:35.334Z,100.00
2022-07-28T08:08:04.107Z,100.00
2022-07-28T08:10:31.197Z,100.00
2022-07-28T08:12:58.289Z,100.00
2022-07-28T08:15:25.211Z,100.00
2022-07-28T08:17:52.343Z,100.00
2022-07-28T08:20:21.030Z,100.00
2022-07-28T08:22:48.592Z,100.00
2022-07-28T08:25:15.668Z,100.00
2022-07-28T08:27:42.609Z,100.00
2022-07-28T08:30:11.184Z,100.00
2022-07-28T08:32:38.240Z,100.00
2022-07-28T08:35:31.751Z,100.00
2022-07-28T08:37:54.380Z,100.00
2022-07-28T08:40:27.165Z,100.00
2022-07-28T08:43:01.779Z,100.00
2022-07-28T08:45:29.813Z,100.00
2022-07-28T08:48:10.188Z,100.00
2022-07-28T08:50:38.590Z,100.00
2022-07-28T08:53:07.957Z,100.00
2022-07-28T08:55:36.378Z,100.00
2022-07-28T08:58:04.260Z,99.49
2022-07-28T09:00:31.911Z,95.51
2022-07-28T09:03:01.970Z,94.55
2022-07-28T09:05:30.044Z,95.29
2022-07-28T09:07:58.746Z,94.60
2022-07-28T09:10:27.075Z,96.74
2022-07-28T09:12:54.177Z,99.96
2022-07-28T09:15:21.367Z,93.78
2022-07-28T09:17:48.333Z,97.85
2022-07-28T09:20:17.311Z,94.07
2022-07-28T09:22:58.969Z,100.00
2022-07-28T09:25:28.648Z,94.12
2022-07-28T09:27:56.590Z,100.00
2022-07-28T09:30:31.714Z,92.88
2022-07-28T09:33:43.190Z,97.56
2022-07-28T09:36:04.527Z,88.14
2022-07-28T09:38:41.224Z,81.71
2022-07-28T09:41:09.563Z,84.69
2022-07-28T09:43:38.065Z,85.98
2022-07-28T09:46:06.852Z,91.52
2022-07-28T09:48:34.653Z,88.41
2022-07-28T09:51:12.937Z,88.65
2022-07-28T09:53:40.499Z,87.69
2022-07-28T09:56:07.491Z,85.71
2022-07-28T09:58:36.985Z,79.66
2022-07-28T10:01:07.682Z,86.56
2022-07-28T10:03:36.327Z,77.82
2022-07-28T10:06:04.690Z,80.82
2022-07-28T10:08:43.588Z,82.01
2022-07-28T10:11:11.514Z,76.50
2022-07-28T10:14:02.912Z,72.93
2022-07-28T10:16:31.768Z,74.85
2022-07-28T10:19:01.032Z,67.46
2022-07-28T10:21:31.085Z,71.29
2022-07-28T10:24:04.824Z,77.99
2022-07-28T10:26:33.340Z,72.38
2022-07-28T10:29:05.587Z,77.18
2022-07-28T10:31:41.985Z,68.36
2022-07-28T10:34:16.445Z,74.07
2022-07-28T10:36:44.339Z,72.36
2022-07-28T10:39:16.012Z,71.55
2022-07-28T10:41:43.384Z,68.50
2022-07-28T10:44:13.731Z,70.23
2022-07-28T10:46:42.662Z,69.10
2022-07-28T10:49:11.079Z,66.23
2022-07-28T10:51:59.852Z,71.58
2022-07-28T10:54:29.971Z,67.01
2022-07-28T10:56:58.830Z,65.62
2022-07-28T10:59:48.849Z,62.53
2022-07-28T11:02:58.507Z,69.07
2022-07-28T11:05:32.064Z,66.76
2022-07-28T11:08:02.724Z,59.14
2022-07-28T11:10:42.359Z,60.91
2022-07-28T11:13:24.053Z,61.48
2022-07-28T11:15:58.876Z,61.83
2022-07-28T11:18:28.283Z,65.69
2022-07-28T11:21:08.723Z,63.16
2022-07-28T11:23:46.126Z,59.41
2022-07-28T11:26:34.070Z,61.62
2022-07-28T11:29:21.219Z,61.52
2022-07-28T11:32:00.243Z,62.04
2022-07-28T11:34:28.186Z,59.87
2022-07-28T11:37:00.928Z,61.19
2022-07-28T11:39:29.517Z,59.69
2022-07-28T11:41:56.831Z,58.58
2022-07-28T11:44:25.583Z,58.79
2022-07-28T11:46:53.320Z,61.11
2022-07-28T11:49:26.396Z,53.61
2022-07-28T11:52:15.279Z,54.47
2022-07-28T11:54:49.675Z,52.05
2022-07-28T11:57:18.829Z,56.82
2022-07-28T11:59:49.713Z,57.06
2022-07-28T12:02:18.729Z,53.23
2022-07-28T12:05:15.028Z,53.02
2022-07-28T12:07:45.126Z,52.50
2022-07-28T12:10:55.926Z,52.94
2022-07-28T12:13:27.604Z,53.99
2022-07-28T12:15:54.551Z,52.12
2022-07-28T12:18:24.847Z,54.16
2022-07-28T12:20:53.551Z,49.92
2022-07-28T12:23:34.957Z,55.19
2022-07-28T12:26:07.214Z,53.91
2022-07-28T12:28:37.168Z,52.17
2022-07-28T12:31:14.448Z,53.76
2022-07-28T12:33:41.529Z,52.39
2022-07-28T12:36:10.720Z,51.37
2022-07-28T12:38:37.979Z,55.13
2022-07-28T12:41:14.494Z,53.43
2022-07-28T12:43:50.153Z,53.17
2022-07-28T12:46:21.509Z,52.62
2022-07-28T12:48:49.812Z,50.38
2022-07-28T12:51:32.756Z,49.81
2022-07-28T12:53:59.987Z,51.83
2022-07-28T12:56:27.282Z,50.21
2022-07-28T12:59:09.016Z,49.37
2022-07-28T13:01:50.524Z,51.24
2022-07-28T13:04:37.212Z,50.22
2022-07-28T13:07:06.761Z,50.49
2022-07-28T13:09:35.445Z,48.78
2022-07-28T13:12:03.403Z,49.48
2022-07-28T13:14:40.843Z,48.52
2022-07-28T13:17:08.655Z,48.80
2022-07-28T13:19:36.455Z,49.73
2022-07-28T13:22:08.653Z,50.67
2022-07-28T13:24:38.052Z,50.62
2022-07-28T13:27:05.554Z,49.47
2022-07-28T13:29:34.924Z,47.42
2022-07-28T13:32:02.161Z,48.81
2022-07-28T13:34:29.205Z,48.69
2022-07-28T13:36:56.263Z,49.25
2022-07-28T13:39:23.382Z,46.90
2022-07-28T13:41:58.286Z,46.63
2022-07-28T13:44:26.769Z,46.75
2022-07-28T13:46:57.221Z,46.79
2022-07-28T13:49:27.344Z,46.26
2022-07-28T13:51:54.989Z,48.24
2022-07-28T13:54:22.039Z,47.49
2022-07-28T13:56:49.900Z,46.30
2022-07-28T13:59:18.491Z,46.51
2022-07-28T14:01:49.692Z,44.79
2022-07-28T14:04:17.776Z,46.82
2022-07-28T14:06:45.141Z,46.32
2022-07-28T14:09:13.593Z,45.11
2022-07-28T14:11:49.926Z,46.65
2022-07-28T14:14:24.060Z,48.44
2022-07-28T14:16:52.251Z,45.82
2022-07-28T14:19:23.635Z,44.52
2022-07-28T14:22:12.254Z,45.92
2022-07-28T14:24:40.122Z,45.06
2022-07-28T14:27:07.349Z,46.49
2022-07-28T14:29:36.206Z,45.08
2022-07-28T14:32:03.470Z,44.67
2022-07-28T14:34:30.527Z,44.58
2022-07-28T14:36:57.686Z,46.72
2022-07-28T14:39:26.286Z,46.97
2022-07-28T14:41:53.294Z,45.72
2022-07-28T14:44:23.919Z,47.76
2022-07-28T14:46:53.962Z,47.54
2022-07-28T14:49:21.664Z,45.95
2022-07-28T14:51:48.815Z,45.83
2022-07-28T14:54:16.388Z,46.45
2022-07-28T14:56:45.724Z,47.99
2022-07-28T14:59:12.853Z,47.64
2022-07-28T15:01:40.822Z,45.66
2022-07-28T15:04:10.435Z,45.39
2022-07-28T15:06:38.313Z,46.52
2022-07-28T15:09:06.076Z,45.01
2022-07-28T15:11:34.906Z,45.97
2022-07-28T15:14:02.182Z,46.36
2022-07-28T15:16:29.359Z,46.34
2022-07-28T15:18:57.157Z,46.09
2022-07-28T15:21:26.582Z,45.48
2022-07-28T15:23:53.780Z,45.88
2022-07-28T15:26:21.003Z,45.32
2022-07-28T15:28:48.488Z,47.12
2022-07-28T15:31:15.775Z,46.98
2022-07-28T15:33:48.262Z,45.37
2022-07-28T15:36:20.020Z,46.58
2022-07-28T15:38:50.951Z,45.70
2022-07-28T15:41:19.503Z,45.90
2022-07-28T15:43:47.382Z,46.36
2022-07-28T15:46:14.820Z,46.52
2022-07-28T15:48:43.980Z,46.23
2022-07-28T15:51:11.749Z,46.95
2022-07-28T15:53:39.601Z,45.69
2022-07-28T15:56:08.819Z,45.67
2022-07-28T15:58:36.328Z,45.93
2022-07-28T16:01:03.843Z,45.48
2022-07-28T16:03:31.073Z,46.41
2022-07-28T16:05:58.552Z,46.33
2022-07-28T16:08:26.418Z,45.52
2022-07-28T16:10:54.553Z,46.82
2022-07-28T16:13:36.306Z,47.47
2022-07-28T16:16:07.345Z,48.28
2022-07-28T16:18:35.757Z,46.13
2022-07-28T16:21:03.220Z,46.25
2022-07-28T16:23:30.744Z,45.93
2022-07-28T16:25:58.743Z,46.19
2022-07-28T16:28:28.586Z,45.95
2022-07-28T16:30:56.210Z,46.54
2022-07-28T16:33:23.936Z,46.25
2022-07-28T16:35:50.921Z,47.43
2022-07-28T16:38:20.498Z,46.88
2022-07-28T16:40:47.487Z,48.27
2022-07-28T16:43:14.459Z,47.57
2022-07-28T16:45:44.034Z,48.92
2022-07-28T16:48:11.119Z,47.69
2022-07-28T16:50:38.942Z,47.16
2022-07-28T16:53:05.955Z,47.83
2022-07-28T16:55:33.260Z,47.85
2022-07-28T16:58:00.634Z,49.06
2022-07-28T17:00:27.746Z,49.80
2022-07-28T17:02:56.565Z,48.90
2022-07-28T17:05:23.846Z,49.70
2022-07-28T17:07:52.439Z,49.58
2022-07-28T17:10:20.256Z,48.88
2022-07-28T17:12:49.870Z,49.35
2022-07-28T17:15:22.239Z,48.97
2022-07-28T17:17:50.488Z,49.33
2022-07-28T17:20:19.727Z,50.10
2022-07-28T17:22:49.202Z,49.81
2022-07-28T17:28:05.128Z,50.35
2022-07-28T17:30:33.375Z,51.08
2022-07-28T17:33:06.244Z,50.83
2022-07-28T17:35:37.509Z,51.14
2022-07-28T17:38:06.527Z,51.72
2022-07-28T17:40:34.119Z,53.35
2022-07-28T17:43:01.200Z,54.41
2022-07-28T17:45:28.317Z,54.30
2022-07-28T17:47:55.595Z,56.51
2022-07-28T17:50:24.260Z,60.76
2022-07-28T17:52:53.302Z,62.97
2022-07-28T17:55:20.809Z,64.69
2022-07-28T17:57:51.207Z,65.14
2022-07-28T18:00:20.614Z,64.55
2022-07-28T18:02:50.239Z,66.81
2022-07-28T18:05:17.443Z,67.11
2022-07-28T18:07:51.233Z,69.76
2022-07-28T18:10:24.845Z,68.52
2022-07-28T18:12:54.717Z,69.28
2022-07-28T18:15:21.888Z,70.10
2022-07-28T18:17:55.081Z,72.14
2022-07-28T18:20:24.363Z,74.99
2022-07-28T18:22:51.635Z,73.00
2022-07-28T18:25:21.726Z,75.51
2022-07-28T18:27:48.744Z,75.61
2022-07-28T18:30:15.848Z,76.59
2022-07-28T18:32:43.706Z,77.18
2022-07-28T18:35:11.539Z,80.31
2022-07-28T18:37:43.583Z,82.64
2022-07-28T18:40:14.914Z,83.31
2022-07-28T18:42:43.667Z,84.78
2022-07-28T18:45:11.833Z,86.21
2022-07-28T18:47:46.332Z,85.33
2022-07-28T18:50:27.855Z,86.30
2022-07-28T18:52:59.604Z,89.08
2022-07-28T18:55:26.652Z,88.70
2022-07-28T18:57:55.409Z,91.76
2022-07-28T19:00:22.817Z,92.41
2022-07-28T19:02:50.314Z,93.46
2022-07-28T19:05:17.489Z,93.99
2022-07-28T19:07:44.433Z,93.66
2022-07-28T19:10:11.498Z,96.62
2022-07-28T19:12:38.568Z,97.46
2022-07-28T19:15:08.548Z,98.01
2022-07-28T19:17:35.587Z,97.69
2022-07-28T19:20:02.708Z,96.32
2022-07-28T19:22:29.837Z,96.54
2022-07-28T19:24:56.934Z,96.67
2022-07-28T19:27:24.037Z,97.09
2022-07-28T19:29:51.339Z,96.86
2022-07-28T19:32:20.568Z,98.80
2022-07-28T19:34:47.699Z,96.90
2022-07-28T19:37:16.880Z,100.00
2022-07-28T19:39:46.032Z,98.39
2022-07-28T19:42:13.573Z,99.86
2022-07-28T19:44:41.577Z,100.00
2022-07-28T19:47:11.224Z,100.00
2022-07-28T19:49:39.991Z,100.00
2022-07-28T19:52:07.584Z,99.99
2022-07-28T19:54:35.209Z,100.00
2022-07-28T19:57:02.482Z,100.00
2022-07-28T19:59:37.733Z,100.00
2022-07-28T20:02:04.913Z,100.00
2022-07-28T20:04:32.286Z,100.00
2022-07-28T20:07:04.190Z,100.00
2022-07-28T20:09:31.280Z,100.00
2022-07-28T20:11:58.340Z,100.00
2022-07-28T20:14:25.438Z,100.00
2022-07-28T20:16:53.133Z,100.00
2022-07-28T20:19:20.397Z,100.00
2022-07-28T20:21:47.829Z,100.00
2022-07-28T20:24:16.854Z,100.00
2022-07-28T20:26:44.222Z,100.00
2022-07-28T20:29:11.618Z,100.00
2022-07-28T20:31:38.669Z,100.00
2022-07-28T20:34:05.780Z,100.00
2022-07-28T20:36:33.334Z,100.00
2022-07-28T20:39:00.393Z,100.00
2022-07-28T20:41:29.068Z,100.00
2022-07-28T20:44:26.274Z,100.00
2022-07-28T20:46:43.242Z,100.00
2022-07-28T20:49:10.512Z,100.00
2022-07-28T20:51:37.599Z,100.00
2022-07-28T20:54:07.617Z,100.00
2022-07-28T20:56:36.097Z,100.00
2022-07-28T20:59:06.838Z,100.00
2022-07-28T21:01:34.141Z,100.00
2022-07-28T21:04:01.463Z,100.00
2022-07-28T21:06:28.917Z,100.00
2022-07-28T21:08:56.453Z,100.00
2022-07-28T21:11:26.623Z,100.00
2022-07-28T21:13:56.025Z,100.00
2022-07-28T21:16:23.246Z,100.00
2022-07-28T21:18:50.603Z,100.00
2022-07-28T21:21:17.646Z,100.00
2022-07-28T21:23:44.857Z,100.00
2022-07-28T21:26:12.916Z,100.00
2022-07-28T21:28:40.677Z,100.00
2022-07-28T21:31:09.228Z,100.00
2022-07-28T21:33:36.346Z,100.00
2022-07-28T21:36:03.734Z,100.00
2022-07-28T21:38:30.954Z,100.00
2022-07-28T21:40:58.001Z,100.00
2022-07-28T21:43:25.092Z,100.00
2022-07-28T21:45:52.158Z,100.00
2022-07-28T21:48:20.673Z,100.00
2022-07-28T21:50:47.752Z,100.00
2022-07-28T21:53:17.246Z,100.00
2022-07-28T21:55:44.907Z,100.00
2022-07-28T21:58:12.008Z,100.00
2022-07-28T22:00:39.350Z,100.00
2022-07-28T22:03:06.502Z,100.00
2022-07-28T22:05:37.963Z,100.00
2022-07-28T22:08:05.767Z,100.00
2022-07-28T22:10:33.088Z,100.00
2022-07-28T22:13:00.219Z,100.00
2022-07-28T22:15:27.442Z,100.00
2022-07-28T22:17:54.979Z,100.00
2022-07-28T22:20:22.272Z,100.00
2022-07-28T22:22:51.082Z,100.00
2022-07-28T22:25:20.703Z,100.00
2022-07-28T22:27:48.015Z,100.00
2022-07-28T22:30:15.089Z,100.00
2022-07-28T22:32:42.210Z,100.00
2022-07-28T22:35:09.558Z,100.00
2022-07-28T22:37:37.115Z,100.00
2022-07-28T22:40:07.104Z,100.00
2022-07-28T22:42:34.129Z,100.00
2022-07-28T22:45:01.178Z,100.00
2022-07-28T22:47:28.629Z,100.00
2022-07-28T22:49:56.085Z,100.00
2022-07-28T22:52:25.557Z,100.00
2022-07-28T22:54:53.398Z,100.00
2022-07-28T22:57:22.419Z,100.00
2022-07-28T22:59:50.294Z,100.00
2022-07-28T23:02:19.191Z,100.00
2022-07-28T23:04:51.414Z,100.00
2022-07-28T23:07:19.465Z,100.00
2022-07-28T23:09:46.613Z,100.00
2022-07-28T23:12:13.990Z,100.00
2022-07-28T23:14:42.613Z,100.00
2022-07-28T23:17:09.698Z,100.00
2022-07-28T23:19:36.718Z,100.00
2022-07-28T23:22:04.254Z,100.00
2022-07-28T23:24:31.532Z,100.00
2022-07-28T23:26:58.609Z,100.00
2022-07-28T23:29:25.790Z,100.00
2022-07-28T23:31:54.323Z,100.00
2022-07-28T23:34:21.419Z,100.00
2022-07-28T23:36:48.505Z,100.00
2022-07-28T23:39:15.518Z,100.00
2022-07-28T23:41:42.594Z,100.00
2022-07-28T23:44:09.859Z,100.00
2022-07-28T23:46:36.909Z,100.00
2022-07-28T23:49:06.945Z,100.00
2022-07-28T23:51:47.723Z,100.00
2022-07-28T23:54:16.115Z,100.00
2022-07-28T23:56:43.540Z,100.00
2022-07-28T23:59:13.999Z,100.00
